sensor_id;sensor_type;location;lat;lon;timestamp;pressure;altitude;pressure_sealevel;temperature;humidity
40946;BME280;55635;50.264;11.918;2023-11-19T00:01:18;95620.00;;;4.72;100.00
40946;BME280;55635;50.264;11.918;2023-11-19T00:03:59;95626.69;;;4.84;100.00
40946;BME280;55635;50.264;11.918;2023-11-19T00:06:40;95606.78;;;4.99;100.00
40946;BME280;55635;50.264;11.918;2023-11-19T00:09:21;95602.81;;;4.77;100.00
40946;BME280;55635;50.264;11.918;2023-11-19T00:12:06;95588.47;;;5.07;100.00
40946;BME280;55635;50.264;11.918;2023-11-19T00:14:48;95580.69;;;4.98;100.00
40946;BME280;55635;50.264;11.918;2023-11-19T00:17:29;95602.06;;;5.03;100.00
40946;BME280;55635;50.264;11.918;2023-11-19T00:20:17;95592.44;;;5.11;100.00
40946;BME280;55635;50.264;11.918;2023-11-19T00:22:59;95593.66;;;5.17;100.00
40946;BME280;55635;50.264;11.918;2023-11-19T00:25:41;95585.03;;;5.07;100.00
40946;BME280;55635;50.264;11.918;2023-11-19T00:28:23;95591.94;;;4.90;100.00
40946;BME280;55635;50.264;11.918;2023-11-19T00:31:05;95592.81;;;4.99;100.00
40946;BME280;55635;50.264;11.918;2023-11-19T00:33:46;95588.00;;;5.12;100.00
40946;BME280;55635;50.264;11.918;2023-11-19T00:36:27;95579.59;;;5.26;100.00
40946;BME280;55635;50.264;11.918;2023-11-19T00:39:09;95577.25;;;5.48;100.00
40946;BME280;55635;50.264;11.918;2023-11-19T00:41:50;95558.31;;;5.37;100.00
40946;BME280;55635;50.264;11.918;2023-11-19T00:44:31;95550.22;;;5.56;100.00
40946;BME280;55635;50.264;11.918;2023-11-19T00:47:12;95542.78;;;5.26;100.00
40946;BME280;55635;50.264;11.918;2023-11-19T00:49:53;95532.28;;;5.26;100.00
40946;BME280;55635;50.264;11.918;2023-11-19T00:52:34;95530.53;;;5.34;100.00
40946;BME280;55635;50.264;11.918;2023-11-19T00:55:15;95531.41;;;5.51;100.00
40946;BME280;55635;50.264;11.918;2023-11-19T00:57:56;95523.16;;;5.72;100.00
40946;BME280;55635;50.264;11.918;2023-11-19T01:00:37;95539.94;;;5.79;100.00
40946;BME280;55635;50.264;11.918;2023-11-19T01:03:18;95542.38;;;5.72;100.00
40946;BME280;55635;50.264;11.918;2023-11-19T01:05:59;95558.22;;;5.55;100.00
40946;BME280;55635;50.264;11.918;2023-11-19T01:08:43;95545.16;;;5.37;100.00
40946;BME280;55635;50.264;11.918;2023-11-19T01:11:25;95541.59;;;5.20;100.00
40946;BME280;55635;50.264;11.918;2023-11-19T01:14:06;95553.16;;;5.53;100.00
40946;BME280;55635;50.264;11.918;2023-11-19T01:16:50;95553.50;;;5.32;100.00
40946;BME280;55635;50.264;11.918;2023-11-19T01:19:32;95564.09;;;5.74;100.00
40946;BME280;55635;50.264;11.918;2023-11-19T01:22:12;95549.09;;;5.92;100.00
40946;BME280;55635;50.264;11.918;2023-11-19T01:24:54;95548.59;;;5.97;100.00
40946;BME280;55635;50.264;11.918;2023-11-19T01:27:35;95527.41;;;5.98;100.00
40946;BME280;55635;50.264;11.918;2023-11-19T01:30:16;95519.22;;;6.18;100.00
40946;BME280;55635;50.264;11.918;2023-11-19T01:32:57;95528.69;;;5.94;100.00
40946;BME280;55635;50.264;11.918;2023-11-19T01:35:38;95519.53;;;5.73;100.00
40946;BME280;55635;50.264;11.918;2023-11-19T01:38:19;95523.72;;;5.49;100.00
40946;BME280;55635;50.264;11.918;2023-11-19T01:41:01;95523.53;;;5.51;100.00
40946;BME280;55635;50.264;11.918;2023-11-19T01:43:44;95499.81;;;5.35;100.00
40946;BME280;55635;50.264;11.918;2023-11-19T01:46:28;95496.59;;;5.49;100.00
40946;BME280;55635;50.264;11.918;2023-11-19T01:49:10;95487.72;;;5.50;100.00
40946;BME280;55635;50.264;11.918;2023-11-19T01:51:52;95484.38;;;5.40;100.00
40946;BME280;55635;50.264;11.918;2023-11-19T01:54:34;95469.63;;;5.47;100.00
40946;BME280;55635;50.264;11.918;2023-11-19T01:57:15;95462.06;;;5.44;100.00
40946;BME280;55635;50.264;11.918;2023-11-19T01:59:56;95462.31;;;5.67;100.00
40946;BME280;55635;50.264;11.918;2023-11-19T02:02:38;95458.22;;;5.30;100.00
40946;BME280;55635;50.264;11.918;2023-11-19T02:05:20;95451.72;;;5.50;100.00
40946;BME280;55635;50.264;11.918;2023-11-19T02:08:02;95444.41;;;5.78;100.00
40946;BME280;55635;50.264;11.918;2023-11-19T02:10:44;95457.56;;;5.70;100.00
40946;BME280;55635;50.264;11.918;2023-11-19T02:13:26;95435.22;;;5.82;100.00
40946;BME280;55635;50.264;11.918;2023-11-19T02:16:07;95448.63;;;5.97;100.00
40946;BME280;55635;50.264;11.918;2023-11-19T02:18:50;95438.63;;;6.17;100.00
40946;BME280;55635;50.264;11.918;2023-11-19T02:21:31;95437.31;;;6.29;100.00
40946;BME280;55635;50.264;11.918;2023-11-19T02:24:14;95426.59;;;5.90;100.00
40946;BME280;55635;50.264;11.918;2023-11-19T02:27:13;95419.44;;;5.82;100.00
40946;BME280;55635;50.264;11.918;2023-11-19T02:29:57;95408.41;;;5.71;100.00
40946;BME280;55635;50.264;11.918;2023-11-19T02:32:38;95409.97;;;6.06;100.00
40946;BME280;55635;50.264;11.918;2023-11-19T02:35:21;95405.03;;;6.02;100.00
40946;BME280;55635;50.264;11.918;2023-11-19T02:38:03;95384.00;;;5.94;100.00
40946;BME280;55635;50.264;11.918;2023-11-19T02:40:44;95385.78;;;5.94;100.00
40946;BME280;55635;50.264;11.918;2023-11-19T02:43:25;95391.16;;;5.84;100.00
40946;BME280;55635;50.264;11.918;2023-11-19T02:46:07;95392.88;;;6.01;100.00
40946;BME280;55635;50.264;11.918;2023-11-19T02:48:49;95382.13;;;5.79;100.00
40946;BME280;55635;50.264;11.918;2023-11-19T02:51:30;95371.72;;;5.53;100.00
40946;BME280;55635;50.264;11.918;2023-11-19T02:54:12;95371.44;;;5.80;100.00
40946;BME280;55635;50.264;11.918;2023-11-19T02:56:53;95378.41;;;6.06;100.00
40946;BME280;55635;50.264;11.918;2023-11-19T02:59:40;95367.06;;;6.05;100.00
40946;BME280;55635;50.264;11.918;2023-11-19T03:02:24;95372.16;;;5.98;100.00
40946;BME280;55635;50.264;11.918;2023-11-19T03:05:07;95367.22;;;5.95;100.00
40946;BME280;55635;50.264;11.918;2023-11-19T03:07:49;95358.19;;;5.90;100.00
40946;BME280;55635;50.264;11.918;2023-11-19T03:10:30;95350.06;;;5.75;100.00
40946;BME280;55635;50.264;11.918;2023-11-19T03:13:13;95313.06;;;5.85;100.00
40946;BME280;55635;50.264;11.918;2023-11-19T03:15:58;95339.25;;;5.86;100.00
40946;BME280;55635;50.264;11.918;2023-11-19T03:18:40;95340.09;;;5.95;100.00
40946;BME280;55635;50.264;11.918;2023-11-19T03:21:30;95336.97;;;6.32;100.00
40946;BME280;55635;50.264;11.918;2023-11-19T03:24:15;95318.16;;;6.59;100.00
40946;BME280;55635;50.264;11.918;2023-11-19T03:26:56;95297.03;;;6.75;100.00
40946;BME280;55635;50.264;11.918;2023-11-19T03:29:37;95316.16;;;6.69;100.00
40946;BME280;55635;50.264;11.918;2023-11-19T03:32:19;95301.00;;;6.71;100.00
40946;BME280;55635;50.264;11.918;2023-11-19T03:35:03;95306.22;;;6.87;100.00
40946;BME280;55635;50.264;11.918;2023-11-19T03:37:49;95303.47;;;6.73;100.00
40946;BME280;55635;50.264;11.918;2023-11-19T03:40:30;95311.50;;;6.87;100.00
40946;BME280;55635;50.264;11.918;2023-11-19T03:43:11;95289.81;;;6.69;100.00
40946;BME280;55635;50.264;11.918;2023-11-19T03:45:54;95303.09;;;6.84;100.00
40946;BME280;55635;50.264;11.918;2023-11-19T03:48:35;95273.19;;;7.07;100.00
40946;BME280;55635;50.264;11.918;2023-11-19T03:51:16;95269.28;;;6.95;100.00
40946;BME280;55635;50.264;11.918;2023-11-19T03:53:58;95277.81;;;7.05;100.00
40946;BME280;55635;50.264;11.918;2023-11-19T03:56:39;95274.66;;;7.10;100.00
40946;BME280;55635;50.264;11.918;2023-11-19T03:59:20;95280.13;;;7.31;100.00
40946;BME280;55635;50.264;11.918;2023-11-19T04:02:02;95267.13;;;7.30;100.00
40946;BME280;55635;50.264;11.918;2023-11-19T04:04:43;95261.09;;;7.21;100.00
40946;BME280;55635;50.264;11.918;2023-11-19T04:07:24;95247.78;;;7.15;100.00
40946;BME280;55635;50.264;11.918;2023-11-19T04:10:05;95257.03;;;7.10;100.00
40946;BME280;55635;50.264;11.918;2023-11-19T04:12:46;95262.22;;;7.27;100.00
40946;BME280;55635;50.264;11.918;2023-11-19T04:15:27;95261.59;;;7.47;100.00
40946;BME280;55635;50.264;11.918;2023-11-19T04:18:08;95250.91;;;7.18;100.00
40946;BME280;55635;50.264;11.918;2023-11-19T04:20:49;95237.56;;;7.42;100.00
40946;BME280;55635;50.264;11.918;2023-11-19T04:23:31;95247.63;;;7.39;100.00
40946;BME280;55635;50.264;11.918;2023-11-19T04:26:12;95242.13;;;7.48;100.00
40946;BME280;55635;50.264;11.918;2023-11-19T04:28:53;95234.63;;;7.60;100.00
40946;BME280;55635;50.264;11.918;2023-11-19T04:31:34;95240.44;;;7.33;100.00
40946;BME280;55635;50.264;11.918;2023-11-19T04:34:15;95243.44;;;7.22;100.00
40946;BME280;55635;50.264;11.918;2023-11-19T04:36:56;95228.28;;;7.46;100.00
40946;BME280;55635;50.264;11.918;2023-11-19T04:39:37;95229.66;;;7.42;100.00
40946;BME280;55635;50.264;11.918;2023-11-19T04:42:18;95242.25;;;7.55;100.00
40946;BME280;55635;50.264;11.918;2023-11-19T04:44:59;95247.59;;;7.70;100.00
40946;BME280;55635;50.264;11.918;2023-11-19T04:47:40;95251.72;;;7.87;100.00
40946;BME280;55635;50.264;11.918;2023-11-19T04:50:21;95251.91;;;7.85;100.00
40946;BME280;55635;50.264;11.918;2023-11-19T04:53:11;95255.97;;;7.73;100.00
40946;BME280;55635;50.264;11.918;2023-11-19T04:55:52;95250.38;;;7.68;100.00
40946;BME280;55635;50.264;11.918;2023-11-19T04:58:33;95231.28;;;7.66;100.00
40946;BME280;55635;50.264;11.918;2023-11-19T05:01:14;95233.28;;;7.64;100.00
40946;BME280;55635;50.264;11.918;2023-11-19T05:03:58;95229.47;;;7.66;100.00
40946;BME280;55635;50.264;11.918;2023-11-19T05:06:40;95237.31;;;7.75;100.00
40946;BME280;55635;50.264;11.918;2023-11-19T05:09:21;95239.34;;;7.87;100.00
40946;BME280;55635;50.264;11.918;2023-11-19T05:12:02;95237.31;;;7.97;100.00
40946;BME280;55635;50.264;11.918;2023-11-19T05:14:43;95219.00;;;7.96;100.00
40946;BME280;55635;50.264;11.918;2023-11-19T05:17:29;95227.06;;;7.57;100.00
40946;BME280;55635;50.264;11.918;2023-11-19T05:20:10;95210.25;;;7.95;100.00
40946;BME280;55635;50.264;11.918;2023-11-19T05:22:54;95197.97;;;7.88;100.00
40946;BME280;55635;50.264;11.918;2023-11-19T05:25:36;95195.66;;;7.70;100.00
40946;BME280;55635;50.264;11.918;2023-11-19T05:28:17;95188.28;;;7.80;100.00
40946;BME280;55635;50.264;11.918;2023-11-19T05:30:58;95190.50;;;7.91;100.00
40946;BME280;55635;50.264;11.918;2023-11-19T05:33:39;95173.88;;;7.68;100.00
40946;BME280;55635;50.264;11.918;2023-11-19T05:36:20;95185.25;;;7.68;100.00
40946;BME280;55635;50.264;11.918;2023-11-19T05:39:01;95194.50;;;7.64;100.00
40946;BME280;55635;50.264;11.918;2023-11-19T05:41:43;95179.84;;;7.85;100.00
40946;BME280;55635;50.264;11.918;2023-11-19T05:44:24;95197.16;;;8.02;100.00
40946;BME280;55635;50.264;11.918;2023-11-19T05:47:05;95203.41;;;7.86;100.00
40946;BME280;55635;50.264;11.918;2023-11-19T05:49:46;95186.78;;;8.00;100.00
40946;BME280;55635;50.264;11.918;2023-11-19T05:52:27;95199.06;;;7.93;100.00
40946;BME280;55635;50.264;11.918;2023-11-19T05:55:10;95179.59;;;7.94;100.00
40946;BME280;55635;50.264;11.918;2023-11-19T05:57:51;95176.22;;;8.00;100.00
40946;BME280;55635;50.264;11.918;2023-11-19T06:00:32;95187.88;;;8.20;100.00
40946;BME280;55635;50.264;11.918;2023-11-19T06:03:13;95192.25;;;8.13;100.00
40946;BME280;55635;50.264;11.918;2023-11-19T06:05:54;95195.06;;;8.35;100.00
40946;BME280;55635;50.264;11.918;2023-11-19T06:08:35;95179.44;;;8.25;100.00
40946;BME280;55635;50.264;11.918;2023-11-19T06:11:16;95178.41;;;8.26;100.00
40946;BME280;55635;50.264;11.918;2023-11-19T06:13:59;95173.69;;;8.07;100.00
40946;BME280;55635;50.264;11.918;2023-11-19T06:16:40;95189.59;;;8.13;100.00
40946;BME280;55635;50.264;11.918;2023-11-19T06:19:21;95175.63;;;8.28;100.00
40946;BME280;55635;50.264;11.918;2023-11-19T06:22:02;95178.50;;;8.03;100.00
40946;BME280;55635;50.264;11.918;2023-11-19T06:24:43;95168.47;;;7.99;100.00
40946;BME280;55635;50.264;11.918;2023-11-19T06:27:24;95159.94;;;8.11;100.00
40946;BME280;55635;50.264;11.918;2023-11-19T06:30:05;95181.50;;;7.86;100.00
40946;BME280;55635;50.264;11.918;2023-11-19T06:32:46;95167.59;;;8.06;100.00
40946;BME280;55635;50.264;11.918;2023-11-19T06:35:27;95167.66;;;7.98;100.00
40946;BME280;55635;50.264;11.918;2023-11-19T06:38:16;95168.31;;;8.00;100.00
40946;BME280;55635;50.264;11.918;2023-11-19T06:40:57;95168.78;;;8.04;100.00
40946;BME280;55635;50.264;11.918;2023-11-19T06:43:38;95152.84;;;8.12;100.00
40946;BME280;55635;50.264;11.918;2023-11-19T06:46:19;95173.84;;;7.91;100.00
40946;BME280;55635;50.264;11.918;2023-11-19T06:49:01;95158.94;;;8.12;100.00
40946;BME280;55635;50.264;11.918;2023-11-19T06:51:42;95171.41;;;8.18;100.00
40946;BME280;55635;50.264;11.918;2023-11-19T06:54:24;95177.69;;;8.17;100.00
40946;BME280;55635;50.264;11.918;2023-11-19T06:57:06;95170.13;;;8.14;100.00
40946;BME280;55635;50.264;11.918;2023-11-19T06:59:46;95185.97;;;8.14;100.00
40946;BME280;55635;50.264;11.918;2023-11-19T07:02:27;95191.81;;;8.25;100.00
40946;BME280;55635;50.264;11.918;2023-11-19T07:05:09;95191.53;;;8.19;100.00
40946;BME280;55635;50.264;11.918;2023-11-19T07:07:50;95204.16;;;8.47;100.00
40946;BME280;55635;50.264;11.918;2023-11-19T07:10:33;95196.31;;;8.53;100.00
40946;BME280;55635;50.264;11.918;2023-11-19T07:13:14;95203.84;;;8.27;100.00
40946;BME280;55635;50.264;11.918;2023-11-19T07:15:58;95215.53;;;8.77;100.00
40946;BME280;55635;50.264;11.918;2023-11-19T07:18:39;95208.13;;;8.72;100.00
40946;BME280;55635;50.264;11.918;2023-11-19T07:21:20;95215.44;;;8.55;100.00
40946;BME280;55635;50.264;11.918;2023-11-19T07:24:02;95201.75;;;8.81;100.00
40946;BME280;55635;50.264;11.918;2023-11-19T07:26:45;95204.09;;;8.91;100.00
40946;BME280;55635;50.264;11.918;2023-11-19T07:29:26;95185.91;;;8.66;100.00
40946;BME280;55635;50.264;11.918;2023-11-19T07:32:07;95199.22;;;8.58;100.00
40946;BME280;55635;50.264;11.918;2023-11-19T07:34:48;95212.59;;;8.86;100.00
40946;BME280;55635;50.264;11.918;2023-11-19T07:37:29;95206.13;;;8.89;100.00
40946;BME280;55635;50.264;11.918;2023-11-19T07:40:11;95225.78;;;9.01;100.00
40946;BME280;55635;50.264;11.918;2023-11-19T07:42:52;95190.66;;;8.42;100.00
40946;BME280;55635;50.264;11.918;2023-11-19T07:45:33;95217.16;;;8.92;100.00
40946;BME280;55635;50.264;11.918;2023-11-19T07:48:15;95227.19;;;8.82;100.00
40946;BME280;55635;50.264;11.918;2023-11-19T07:50:56;95227.31;;;9.10;100.00
40946;BME280;55635;50.264;11.918;2023-11-19T07:53:37;95229.09;;;9.39;100.00
40946;BME280;55635;50.264;11.918;2023-11-19T07:56:19;95210.63;;;9.09;100.00
40946;BME280;55635;50.264;11.918;2023-11-19T07:59:00;95215.38;;;9.14;100.00
40946;BME280;55635;50.264;11.918;2023-11-19T08:01:41;95220.31;;;9.02;100.00
40946;BME280;55635;50.264;11.918;2023-11-19T08:04:22;95218.13;;;9.06;100.00
40946;BME280;55635;50.264;11.918;2023-11-19T08:07:03;95227.28;;;9.24;100.00
40946;BME280;55635;50.264;11.918;2023-11-19T08:09:44;95223.56;;;9.19;100.00
40946;BME280;55635;50.264;11.918;2023-11-19T08:12:25;95199.94;;;9.17;100.00
40946;BME280;55635;50.264;11.918;2023-11-19T08:15:07;95210.00;;;9.43;100.00
40946;BME280;55635;50.264;11.918;2023-11-19T08:17:48;95199.31;;;9.15;100.00
40946;BME280;55635;50.264;11.918;2023-11-19T08:20:29;95199.66;;;9.48;100.00
40946;BME280;55635;50.264;11.918;2023-11-19T08:23:10;95223.53;;;9.76;100.00
40946;BME280;55635;50.264;11.918;2023-11-19T08:25:51;95209.69;;;9.53;100.00
40946;BME280;55635;50.264;11.918;2023-11-19T08:28:32;95209.00;;;9.08;100.00
40946;BME280;55635;50.264;11.918;2023-11-19T08:31:15;95219.41;;;9.10;100.00
40946;BME280;55635;50.264;11.918;2023-11-19T08:33:55;95222.84;;;9.46;100.00
40946;BME280;55635;50.264;11.918;2023-11-19T08:36:36;95209.03;;;9.29;100.00
40946;BME280;55635;50.264;11.918;2023-11-19T08:39:17;95205.53;;;9.44;100.00
40946;BME280;55635;50.264;11.918;2023-11-19T08:41:59;95216.03;;;9.37;100.00
40946;BME280;55635;50.264;11.918;2023-11-19T08:44:40;95227.69;;;9.43;100.00
40946;BME280;55635;50.264;11.918;2023-11-19T08:47:24;95207.94;;;9.24;100.00
40946;BME280;55635;50.264;11.918;2023-11-19T08:50:06;95204.47;;;9.59;100.00
40946;BME280;55635;50.264;11.918;2023-11-19T08:52:47;95197.19;;;9.89;100.00
40946;BME280;55635;50.264;11.918;2023-11-19T08:55:28;95205.84;;;9.76;100.00
40946;BME280;55635;50.264;11.918;2023-11-19T08:58:09;95213.84;;;9.83;100.00
40946;BME280;55635;50.264;11.918;2023-11-19T09:00:49;95206.00;;;9.96;100.00
40946;BME280;55635;50.264;11.918;2023-11-19T09:03:34;95186.72;;;10.58;100.00
40946;BME280;55635;50.264;11.918;2023-11-19T09:06:15;95192.59;;;10.94;100.00
40946;BME280;55635;50.264;11.918;2023-11-19T09:08:57;95182.47;;;10.70;100.00
40946;BME280;55635;50.264;11.918;2023-11-19T09:11:41;95188.25;;;10.86;100.00
40946;BME280;55635;50.264;11.918;2023-11-19T09:16:21;95198.88;;;11.40;100.00
40946;BME280;55635;50.264;11.918;2023-11-19T09:19:02;95183.66;;;11.95;100.00
40946;BME280;55635;50.264;11.918;2023-11-19T09:21:43;95170.75;;;12.05;100.00
40946;BME280;55635;50.264;11.918;2023-11-19T09:24:24;95181.63;;;12.10;99.76
40946;BME280;55635;50.264;11.918;2023-11-19T09:27:05;95174.84;;;11.75;99.92
40946;BME280;55635;50.264;11.918;2023-11-19T09:29:46;95159.94;;;12.13;99.00
40946;BME280;55635;50.264;11.918;2023-11-19T09:32:29;95156.88;;;12.16;98.48
40946;BME280;55635;50.264;11.918;2023-11-19T09:35:10;95170.16;;;12.03;97.51
40946;BME280;55635;50.264;11.918;2023-11-19T09:37:54;95158.91;;;12.27;98.50
40946;BME280;55635;50.264;11.918;2023-11-19T09:40:34;95144.38;;;12.23;97.62
40946;BME280;55635;50.264;11.918;2023-11-19T09:43:15;95139.19;;;12.54;96.09
40946;BME280;55635;50.264;11.918;2023-11-19T09:45:59;95147.16;;;12.68;96.64
40946;BME280;55635;50.264;11.918;2023-11-19T09:48:47;95118.53;;;13.14;94.74
40946;BME280;55635;50.264;11.918;2023-11-19T09:51:33;95111.22;;;13.41;92.00
40946;BME280;55635;50.264;11.918;2023-11-19T09:54:14;95114.06;;;13.39;91.45
40946;BME280;55635;50.264;11.918;2023-11-19T09:56:57;95104.66;;;13.93;89.50
40946;BME280;55635;50.264;11.918;2023-11-19T09:59:43;95101.03;;;14.30;90.47
40946;BME280;55635;50.264;11.918;2023-11-19T10:02:28;95107.88;;;14.81;87.85
40946;BME280;55635;50.264;11.918;2023-11-19T10:05:12;95115.25;;;15.15;85.04
40946;BME280;55635;50.264;11.918;2023-11-19T10:07:55;95101.94;;;14.97;85.11
40946;BME280;55635;50.264;11.918;2023-11-19T10:10:37;95096.84;;;15.25;84.09
40946;BME280;55635;50.264;11.918;2023-11-19T10:13:18;95095.84;;;15.08;86.58
40946;BME280;55635;50.264;11.918;2023-11-19T10:15:59;95093.41;;;15.36;82.61
40946;BME280;55635;50.264;11.918;2023-11-19T10:18:49;95094.69;;;15.75;83.30
40946;BME280;55635;50.264;11.918;2023-11-19T10:21:33;95085.88;;;15.45;82.58
40946;BME280;55635;50.264;11.918;2023-11-19T10:24:14;95084.94;;;14.80;83.06
40946;BME280;55635;50.264;11.918;2023-11-19T10:26:57;95086.72;;;14.06;85.95
40946;BME280;55635;50.264;11.918;2023-11-19T10:29:37;95090.72;;;14.15;87.08
40946;BME280;55635;50.264;11.918;2023-11-19T10:32:18;95088.78;;;14.65;86.99
40946;BME280;55635;50.264;11.918;2023-11-19T10:35:06;95089.81;;;14.64;85.95
40946;BME280;55635;50.264;11.918;2023-11-19T10:37:48;95100.34;;;14.59;85.25
40946;BME280;55635;50.264;11.918;2023-11-19T10:40:38;95103.72;;;14.30;85.36
40946;BME280;55635;50.264;11.918;2023-11-19T10:43:22;95092.69;;;14.02;85.20
40946;BME280;55635;50.264;11.918;2023-11-19T10:46:11;95088.72;;;14.29;86.43
40946;BME280;55635;50.264;11.918;2023-11-19T10:48:52;95092.25;;;14.48;84.85
40946;BME280;55635;50.264;11.918;2023-11-19T10:51:34;95098.38;;;14.30;85.26
40946;BME280;55635;50.264;11.918;2023-11-19T10:54:18;95096.13;;;13.84;85.95
40946;BME280;55635;50.264;11.918;2023-11-19T10:57:00;95085.13;;;13.74;87.07
40946;BME280;55635;50.264;11.918;2023-11-19T10:59:42;95086.00;;;13.68;86.96
40946;BME280;55635;50.264;11.918;2023-11-19T11:02:27;95072.25;;;13.46;86.98
40946;BME280;55635;50.264;11.918;2023-11-19T11:05:11;95054.53;;;13.58;87.48
40946;BME280;55635;50.264;11.918;2023-11-19T11:07:55;95059.81;;;13.65;86.56
40946;BME280;55635;50.264;11.918;2023-11-19T11:13:32;95045.41;;;13.48;87.00
40946;BME280;55635;50.264;11.918;2023-11-19T11:16:14;95053.41;;;13.48;86.70
40946;BME280;55635;50.264;11.918;2023-11-19T11:18:55;95050.88;;;13.53;86.41
40946;BME280;55635;50.264;11.918;2023-11-19T11:21:40;95049.72;;;13.42;86.83
40946;BME280;55635;50.264;11.918;2023-11-19T11:27:17;95061.34;;;13.23;88.73
40946;BME280;55635;50.264;11.918;2023-11-19T11:36:22;95029.41;;;13.23;87.77
40946;BME280;55635;50.264;11.918;2023-11-19T11:39:04;95041.66;;;13.24;87.61
40946;BME280;55635;50.264;11.918;2023-11-19T11:45:06;95055.97;;;14.22;84.21
40946;BME280;55635;50.264;11.918;2023-11-19T11:50:55;95034.97;;;15.28;81.71
40946;BME280;55635;50.264;11.918;2023-11-19T11:53:37;95042.22;;;15.09;80.03
40946;BME280;55635;50.264;11.918;2023-11-19T11:56:18;95013.34;;;15.59;78.40
40946;BME280;55635;50.264;11.918;2023-11-19T11:59:00;95044.72;;;15.87;76.47
40946;BME280;55635;50.264;11.918;2023-11-19T12:02:00;95044.22;;;15.55;77.47
40946;BME280;55635;50.264;11.918;2023-11-19T12:04:41;95047.09;;;15.12;77.47
40946;BME280;55635;50.264;11.918;2023-11-19T12:07:24;95041.34;;;14.67;78.53
40946;BME280;55635;50.264;11.918;2023-11-19T12:10:08;95017.41;;;14.91;78.29
40946;BME280;55635;50.264;11.918;2023-11-19T12:12:52;95017.25;;;15.04;79.58
40946;BME280;55635;50.264;11.918;2023-11-19T12:15:33;95041.31;;;14.86;78.02
40946;BME280;55635;50.264;11.918;2023-11-19T12:18:34;95037.16;;;14.71;77.72
40946;BME280;55635;50.264;11.918;2023-11-19T12:21:30;95024.88;;;15.00;77.96
40946;BME280;55635;50.264;11.918;2023-11-19T12:24:11;95034.91;;;14.87;78.29
40946;BME280;55635;50.264;11.918;2023-11-19T12:26:52;95038.00;;;14.72;77.15
40946;BME280;55635;50.264;11.918;2023-11-19T12:29:44;95022.03;;;15.55;74.82
40946;BME280;55635;50.264;11.918;2023-11-19T12:32:25;95026.59;;;15.24;75.32
40946;BME280;55635;50.264;11.918;2023-11-19T12:35:07;95030.56;;;15.87;74.49
40946;BME280;55635;50.264;11.918;2023-11-19T12:37:52;95016.50;;;15.38;75.73
40946;BME280;55635;50.264;11.918;2023-11-19T12:40:33;95022.53;;;16.10;71.42
40946;BME280;55635;50.264;11.918;2023-11-19T12:43:23;95018.69;;;15.71;74.11
40946;BME280;55635;50.264;11.918;2023-11-19T12:48:57;95013.00;;;15.67;72.37
40946;BME280;55635;50.264;11.918;2023-11-19T12:51:38;95008.81;;;15.83;73.07
40946;BME280;55635;50.264;11.918;2023-11-19T12:54:19;95000.16;;;15.46;73.07
40946;BME280;55635;50.264;11.918;2023-11-19T12:57:00;95022.84;;;15.67;71.99
40946;BME280;55635;50.264;11.918;2023-11-19T12:59:41;95014.72;;;15.50;70.94
40946;BME280;55635;50.264;11.918;2023-11-19T13:02:22;95023.69;;;16.14;70.89
40946;BME280;55635;50.264;11.918;2023-11-19T13:05:33;95023.88;;;15.54;70.22
40946;BME280;55635;50.264;11.918;2023-11-19T13:08:14;95017.09;;;14.69;72.75
40946;BME280;55635;50.264;11.918;2023-11-19T13:10:55;95017.06;;;14.39;73.89
40946;BME280;55635;50.264;11.918;2023-11-19T13:13:56;95023.41;;;14.20;74.72
40946;BME280;55635;50.264;11.918;2023-11-19T13:16:38;95034.63;;;14.04;75.74
40946;BME280;55635;50.264;11.918;2023-11-19T13:19:23;95017.78;;;13.85;74.86
40946;BME280;55635;50.264;11.918;2023-11-19T13:22:04;95020.81;;;13.71;76.21
40946;BME280;55635;50.264;11.918;2023-11-19T13:24:46;95024.72;;;14.11;75.60
40946;BME280;55635;50.264;11.918;2023-11-19T13:27:26;95018.34;;;13.94;75.00
40946;BME280;55635;50.264;11.918;2023-11-19T13:30:08;95006.63;;;13.77;74.94
40946;BME280;55635;50.264;11.918;2023-11-19T13:32:52;95012.56;;;13.79;75.68
40946;BME280;55635;50.264;11.918;2023-11-19T13:35:35;95006.88;;;13.50;75.40
40946;BME280;55635;50.264;11.918;2023-11-19T13:38:17;94999.59;;;13.15;75.19
40946;BME280;55635;50.264;11.918;2023-11-19T13:40:58;95016.97;;;13.17;74.82
40946;BME280;55635;50.264;11.918;2023-11-19T13:43:40;94999.25;;;12.98;75.00
40946;BME280;55635;50.264;11.918;2023-11-19T13:46:21;95020.69;;;13.03;75.08
40946;BME280;55635;50.264;11.918;2023-11-19T13:49:02;95017.56;;;13.19;74.98
40946;BME280;55635;50.264;11.918;2023-11-19T13:51:44;95010.00;;;13.16;75.03
40946;BME280;55635;50.264;11.918;2023-11-19T13:54:26;95013.00;;;13.26;74.79
40946;BME280;55635;50.264;11.918;2023-11-19T13:57:07;94992.72;;;13.25;73.49
40946;BME280;55635;50.264;11.918;2023-11-19T13:59:48;95000.75;;;13.19;72.78
40946;BME280;55635;50.264;11.918;2023-11-19T14:02:30;95000.78;;;13.43;73.58
40946;BME280;55635;50.264;11.918;2023-11-19T14:05:15;94999.25;;;13.54;73.41
40946;BME280;55635;50.264;11.918;2023-11-19T14:07:58;94978.97;;;13.28;73.13
40946;BME280;55635;50.264;11.918;2023-11-19T14:10:39;94995.88;;;13.40;73.05
40946;BME280;55635;50.264;11.918;2023-11-19T14:13:24;94981.38;;;13.12;73.11
40946;BME280;55635;50.264;11.918;2023-11-19T14:16:05;94987.31;;;13.38;73.02
40946;BME280;55635;50.264;11.918;2023-11-19T14:18:49;94989.13;;;13.13;72.93
40946;BME280;55635;50.264;11.918;2023-11-19T14:21:31;94987.84;;;13.22;73.40
40946;BME280;55635;50.264;11.918;2023-11-19T14:24:12;94974.56;;;13.16;73.44
40946;BME280;55635;50.264;11.918;2023-11-19T14:26:53;94991.69;;;13.26;74.29
40946;BME280;55635;50.264;11.918;2023-11-19T14:29:34;95008.19;;;13.10;74.08
40946;BME280;55635;50.264;11.918;2023-11-19T14:32:15;94998.06;;;12.87;74.48